Almodovar del Campo, Spain
Current Conditions -  °F | °C
As of 5:00 PM on Sunday 21 Dec 2014 (Local Time) from LEAO Reporting Station
Clear Clear  
Wind Chill: 52°   Ceiling: Unl
Heat Index: 52°   Visibility: 6mi
Dew Point: 46°   Wind: 5mph
Humidity: 82%   Direction: 120°ESE
Pressure: 30.42"   Gusts: NA
Location:  38.71°N, 4.18°W
Report Text: LEAO 211600Z 12004KT CAVOK 11/08 Q1030
Loading
Personal Weather Stations






























Interactive Weather Map New forecast layout! Learn more

10-Day Weather Forecast

Advertisements
Track Severe Weather on mobile